KRWL/RWL METAR and TAF weather

Enter ICAO airport designator
Station Type Date Time Source
KRWL METAR 2022/01/27 23:53 UTC NOAA

KRWL 272353Z AUTO 27008KT 10SM CLR M06/M13 A3039 RMK AO2 SLP350 60000 T10561133 11022 21061 53003


Station Type Date Time Source
KRWL Decoded METAR 2022/01/27 23:53 UTC NOAA

RAWLINS MUNICIPAL AIRPORT, WY, United States (KRWL) 41-48N 107-12W
Jan 27, 2022 - 06:53 PM EST / 2022.01.27 2353 UTC
Wind: from the W (270 degrees) at 9 MPH (8 KT):0
Visibility: 10 mile(s):0
Sky conditions: clear
Temperature: 21.9 F (-5.6 C)
Windchill: 12 F (-11 C):1
Dew Point: 8.1 F (-13.3 C)
Relative Humidity: 54%
Pressure (altimeter): 30.39 in. Hg (1029 hPa)
Pressure tendency: 0.01 inches (0.3 hPa) higher than three hours ago
ob: KRWL 272353Z AUTO 27008KT 10SM CLR M06/M13 A3039 RMK AO2 SLP350 60000 T10561133 11022 21061 53003
cycle: 0

Station Type Date Time Source
KRWL TAF 2022/01/27 18:22 UTC NOAA

TAF KRWL 271720Z 2718/2818 02012KT P6SM BKN060
TEMPO 2718/2720 -SN BKN025
FM272100 33010KT P6SM SCT050
FM280000 26009KT P6SM SKC
FM280300 25015KT P6SM SKC

Example: see airport list